createdAt,value
2022-09-24T00:01:24.903Z,19.83
2022-09-24T00:03:59.183Z,19.05
2022-09-24T00:06:27.727Z,19.67
2022-09-24T00:08:55.980Z,21.23
2022-09-24T00:11:25.139Z,20.80
2022-09-24T00:13:53.132Z,20.40
2022-09-24T00:16:21.743Z,20.52
2022-09-24T00:18:48.573Z,19.60
2022-09-24T00:21:21.953Z,20.65
2022-09-24T00:23:54.722Z,20.95
2022-09-24T00:26:41.019Z,21.10
2022-09-24T00:29:09.226Z,21.55
2022-09-24T00:31:36.526Z,20.85
2022-09-24T00:34:03.737Z,20.55
2022-09-24T00:36:30.655Z,21.30
2022-09-24T00:38:58.912Z,23.10
2022-09-24T00:41:28.995Z,20.08
2022-09-24T00:43:56.342Z,19.42
2022-09-24T00:46:28.601Z,19.58
2022-09-24T00:49:02.286Z,19.45
2022-09-24T00:51:31.874Z,20.60
2022-09-24T00:54:06.609Z,20.65
2022-09-24T00:56:36.477Z,19.85
2022-09-24T00:59:06.471Z,20.00
2022-09-24T01:01:33.275Z,17.77
2022-09-24T01:04:01.417Z,19.67
2022-09-24T01:06:28.864Z,18.98
2022-09-24T01:08:58.468Z,19.33
2022-09-24T01:11:46.459Z,17.90
2022-09-24T01:14:32.996Z,17.88
2022-09-24T01:17:36.356Z,17.40
2022-09-24T01:20:19.849Z,17.60
2022-09-24T01:23:23.762Z,18.98
2022-09-24T01:26:09.203Z,18.58
2022-09-24T01:31:26.180Z,18.33
2022-09-24T01:33:56.102Z,18.77
2022-09-24T01:36:23.320Z,19.10
2022-09-24T01:38:53.165Z,20.10
2022-09-24T01:41:21.576Z,20.60
2022-09-24T01:43:49.369Z,19.48
2022-09-24T01:46:19.605Z,21.10
2022-09-24T01:48:46.709Z,20.98
2022-09-24T01:51:26.542Z,23.02
2022-09-24T01:53:56.413Z,21.27
2022-09-24T01:56:30.370Z,21.83
2022-09-24T01:59:05.166Z,21.75
2022-09-24T02:01:39.088Z,21.33
2022-09-24T02:04:12.026Z,21.60
2022-09-24T02:07:03.259Z,22.80
2022-09-24T02:09:38.785Z,20.88
2022-09-24T02:12:22.804Z,21.08
2022-09-24T02:14:58.054Z,21.70
2022-09-24T02:17:27.516Z,20.73
2022-09-24T02:19:56.403Z,21.38
2022-09-24T02:22:25.099Z,19.20
2022-09-24T02:24:55.430Z,19.30
2022-09-24T02:27:26.477Z,20.08
2022-09-24T02:29:53.165Z,19.67
2022-09-24T02:32:21.713Z,18.77
2022-09-24T02:35:01.713Z,21.40
2022-09-24T02:37:29.295Z,19.80
2022-09-24T02:39:56.086Z,19.05
2022-09-24T02:42:23.101Z,19.63
2022-09-24T02:44:49.853Z,22.73
2022-09-24T02:47:18.122Z,20.35
2022-09-24T02:49:44.816Z,21.67
2022-09-24T02:52:11.900Z,22.38
2022-09-24T02:54:38.549Z,20.35
2022-09-24T02:57:05.493Z,21.92
2022-09-24T02:59:32.327Z,20.85
2022-09-24T03:01:59.520Z,21.50
2022-09-24T03:04:26.331Z,22.15
2022-09-24T03:06:53.307Z,22.50
2022-09-24T03:09:19.938Z,22.55
2022-09-24T03:11:47.264Z,22.08
2022-09-24T03:14:13.917Z,21.70
2022-09-24T03:16:41.550Z,21.80
2022-09-24T03:19:08.524Z,22.27
2022-09-24T03:21:35.184Z,21.50
2022-09-24T03:24:03.606Z,23.17
2022-09-24T03:26:30.265Z,22.30
2022-09-24T03:28:56.934Z,21.85
2022-09-24T03:31:24.084Z,21.58
2022-09-24T03:33:51.028Z,23.17
2022-09-24T03:36:20.908Z,21.50
2022-09-24T03:38:49.070Z,22.25
2022-09-24T03:41:17.224Z,22.52
2022-09-24T03:43:44.225Z,20.83
2022-09-24T03:46:12.664Z,20.08
2022-09-24T03:48:40.884Z,20.73
2022-09-24T03:51:12.174Z,18.17
2022-09-24T03:53:39.142Z,17.35
2022-09-24T03:56:07.196Z,16.80
2022-09-24T03:58:37.306Z,17.13
2022-09-24T04:01:08.513Z,17.70
2022-09-24T04:03:36.221Z,17.55
2022-09-24T04:06:04.104Z,18.15
2022-09-24T04:08:31.518Z,18.60
2022-09-24T04:10:58.685Z,20.00
2022-09-24T04:13:25.956Z,21.48
2022-09-24T04:15:54.779Z,20.40
2022-09-24T04:18:21.764Z,19.27
2022-09-24T04:20:48.570Z,19.50
2022-09-24T04:23:15.369Z,19.75
2022-09-24T04:25:42.102Z,19.83
2022-09-24T04:28:09.775Z,19.10
2022-09-24T04:30:37.986Z,19.38
2022-09-24T04:33:05.136Z,20.23
2022-09-24T04:35:35.215Z,18.35
2022-09-24T04:38:02.830Z,18.75
2022-09-24T04:40:29.969Z,19.65
2022-09-24T04:42:57.051Z,19.02
2022-09-24T04:45:24.965Z,19.83
2022-09-24T04:47:58.201Z,19.42
2022-09-24T04:50:27.246Z,18.90
2022-09-24T04:52:54.863Z,19.30
2022-09-24T04:55:23.097Z,17.20
2022-09-24T04:57:50.853Z,18.60
2022-09-24T05:00:20.247Z,17.63
2022-09-24T05:02:47.200Z,20.33
2022-09-24T05:05:14.639Z,18.67
2022-09-24T05:07:42.564Z,18.25
2022-09-24T05:10:09.402Z,20.17
2022-09-24T05:12:36.327Z,19.48
2022-09-24T05:15:04.049Z,19.95
2022-09-24T05:17:30.737Z,24.02
2022-09-24T05:19:59.343Z,25.70
2022-09-24T05:22:27.850Z,22.73
2022-09-24T05:24:54.510Z,20.60
2022-09-24T05:27:23.064Z,22.85
2022-09-24T05:29:50.274Z,22.45
2022-09-24T05:32:19.527Z,22.25
2022-09-24T05:34:47.212Z,22.17
2022-09-24T05:37:14.829Z,21.17
2022-09-24T05:39:44.224Z,21.98
2022-09-24T05:42:15.012Z,21.48
2022-09-24T05:44:49.839Z,24.30
2022-09-24T05:47:18.800Z,25.52
2022-09-24T05:49:45.466Z,24.67
2022-09-24T05:52:12.096Z,23.95
2022-09-24T05:54:38.751Z,22.92
2022-09-24T05:57:05.416Z,29.92
2022-09-24T05:59:32.273Z,37.80
2022-09-24T06:01:59.014Z,25.27
2022-09-24T06:04:26.359Z,26.38
2022-09-24T06:06:53.462Z,21.55
2022-09-24T06:09:20.113Z,23.40
2022-09-24T06:11:49.030Z,29.15
2022-09-24T06:14:15.661Z,25.25
2022-09-24T06:16:42.324Z,24.83
2022-09-24T06:19:09.221Z,24.13
2022-09-24T06:21:35.984Z,24.13
2022-09-24T06:24:03.018Z,23.75
2022-09-24T06:26:29.706Z,46.47
2022-09-24T06:29:04.440Z,21.75
2022-09-24T06:31:31.771Z,22.10
2022-09-24T06:33:58.560Z,21.85
2022-09-24T06:36:25.205Z,23.20
2022-09-24T06:38:52.544Z,21.17
2022-09-24T06:41:19.298Z,24.95
2022-09-24T06:43:46.187Z,23.15
2022-09-24T06:46:14.121Z,22.85
2022-09-24T06:48:41.309Z,40.80
2022-09-24T06:51:08.181Z,58.35
2022-09-24T06:53:34.932Z,21.25
2022-09-24T06:56:03.391Z,23.27
2022-09-24T06:58:30.576Z,21.48
2022-09-24T07:00:59.681Z,23.85
2022-09-24T07:03:28.111Z,26.00
2022-09-24T07:05:55.217Z,26.27
2022-09-24T07:08:22.269Z,24.65
2022-09-24T07:10:49.628Z,24.58
2022-09-24T07:13:16.990Z,26.33
2022-09-24T07:15:44.700Z,25.52
2022-09-24T07:18:12.745Z,28.70
2022-09-24T07:20:40.121Z,26.55
2022-09-24T07:23:08.958Z,30.13
2022-09-24T07:25:36.622Z,29.48
2022-09-24T07:28:09.441Z,25.58
2022-09-24T07:30:37.065Z,27.08
2022-09-24T07:33:04.131Z,28.10
2022-09-24T07:35:31.487Z,26.08
2022-09-24T07:38:01.880Z,27.42
2022-09-24T07:40:29.651Z,26.85
2022-09-24T07:42:56.918Z,28.20
2022-09-24T07:45:27.809Z,33.50
2022-09-24T07:48:01.708Z,33.60
2022-09-24T07:50:30.081Z,37.95
2022-09-24T07:52:57.093Z,36.25
2022-09-24T07:55:24.421Z,41.53
2022-09-24T07:57:53.225Z,41.58
2022-09-24T08:00:23.738Z,39.75
2022-09-24T08:02:51.826Z,44.95
2022-09-24T08:05:18.519Z,43.03
2022-09-24T08:07:56.087Z,44.45
2022-09-24T08:10:23.907Z,46.80
2022-09-24T08:12:50.873Z,46.88
2022-09-24T08:15:18.514Z,52.92
2022-09-24T08:17:45.241Z,46.95
2022-09-24T08:20:12.161Z,47.33
2022-09-24T08:22:38.792Z,54.45
2022-09-24T08:25:06.021Z,52.60
2022-09-24T08:27:32.877Z,45.92
2022-09-24T08:30:00.486Z,62.53
2022-09-24T08:32:29.071Z,47.13
2022-09-24T08:34:55.723Z,62.08
2022-09-24T08:37:22.399Z,62.53
2022-09-24T08:39:49.034Z,56.88
2022-09-24T08:42:30.763Z,62.70
2022-09-24T08:45:17.377Z,63.95
2022-09-24T08:47:52.817Z,61.72
2022-09-24T08:50:31.302Z,65.13
2022-09-24T08:53:18.080Z,66.00
2022-09-24T08:55:48.180Z,58.08
2022-09-24T08:58:17.852Z,56.28
2022-09-24T09:01:05.100Z,59.25
2022-09-24T09:03:50.410Z,57.15
2022-09-24T09:06:53.980Z,111.63
2022-09-24T09:09:32.365Z,66.25
2022-09-24T09:12:06.324Z,63.35
2022-09-24T09:15:12.063Z,64.97
2022-09-24T09:17:47.705Z,66.57
2022-09-24T09:20:46.066Z,76.55
2022-09-24T09:23:18.888Z,74.57
2022-09-24T09:26:08.859Z,62.72
2022-09-24T09:28:35.589Z,74.45
2022-09-24T09:31:11.196Z,68.50
2022-09-24T09:33:43.648Z,73.57
2022-09-24T09:36:34.046Z,63.65
2022-09-24T09:39:28.343Z,62.88
2022-09-24T09:42:09.560Z,62.83
2022-09-24T09:44:41.909Z,62.35
2022-09-24T09:47:16.811Z,58.08
2022-09-24T09:49:45.491Z,64.15
2022-09-24T09:52:19.317Z,57.90
2022-09-24T09:54:46.334Z,52.17
2022-09-24T09:57:25.150Z,41.08
2022-09-24T09:59:54.205Z,42.00
2022-09-24T10:02:33.848Z,44.55
2022-09-24T10:05:06.172Z,56.55
2022-09-24T10:07:43.784Z,46.05
2022-09-24T10:10:20.753Z,43.67
2022-09-24T10:12:47.506Z,44.20
2022-09-24T10:15:21.169Z,43.22
2022-09-24T10:17:55.408Z,38.25
2022-09-24T10:20:28.165Z,34.78
2022-09-24T10:23:06.791Z,35.50
2022-09-24T10:25:37.018Z,31.52
2022-09-24T10:28:27.308Z,31.20
2022-09-24T10:31:00.949Z,31.33
2022-09-24T10:33:35.563Z,35.20
2022-09-24T10:36:08.342Z,33.90
2022-09-24T10:38:35.072Z,32.47
2022-09-24T10:41:01.862Z,31.33
2022-09-24T10:43:28.688Z,28.83
2022-09-24T10:46:36.524Z,29.85
2022-09-24T10:49:19.719Z,31.80
2022-09-24T10:52:03.470Z,31.98
2022-09-24T10:55:06.245Z,34.08
2022-09-24T10:58:06.272Z,34.13
2022-09-24T11:00:39.941Z,34.58
2022-09-24T11:03:29.486Z,33.60
2022-09-24T11:06:11.799Z,34.78
2022-09-24T11:09:03.428Z,36.13
2022-09-24T11:12:14.077Z,36.38
2022-09-24T11:15:34.137Z,35.42
2022-09-24T11:18:34.813Z,42.30
2022-09-24T11:21:29.598Z,35.50
2022-09-24T11:24:10.480Z,35.08
2022-09-24T11:27:27.088Z,36.30
2022-09-24T11:32:33.831Z,36.25
2022-09-24T11:35:15.680Z,38.25
2022-09-24T11:37:50.545Z,35.80
2022-09-24T11:40:52.838Z,37.13
2022-09-24T11:43:48.695Z,34.15
2022-09-24T11:46:47.234Z,35.90
2022-09-24T11:49:26.864Z,35.67
2022-09-24T11:52:14.528Z,35.63
2022-09-24T11:55:19.731Z,35.47
2022-09-24T11:57:57.264Z,35.17
2022-09-24T12:00:28.117Z,36.03
2022-09-24T12:03:25.200Z,35.60
2022-09-24T12:06:27.808Z,33.72
2022-09-24T12:09:03.695Z,33.35
2022-09-24T12:11:39.114Z,34.42
2022-09-24T12:14:14.985Z,34.80
2022-09-24T12:16:44.368Z,34.58
2022-09-24T12:19:23.929Z,34.30
2022-09-24T12:21:52.876Z,33.60
2022-09-24T12:24:36.222Z,37.20
2022-09-24T12:27:12.150Z,34.47
2022-09-24T12:30:10.282Z,34.67
2022-09-24T12:32:56.504Z,33.30
2022-09-24T12:35:28.644Z,33.45
2022-09-24T12:38:09.080Z,34.38
2022-09-24T12:41:05.347Z,34.20
2022-09-24T12:43:54.166Z,33.95
2022-09-24T12:46:39.276Z,35.95
2022-09-24T12:49:19.338Z,35.95
2022-09-24T12:51:46.466Z,38.15
2022-09-24T12:54:30.753Z,35.72
2022-09-24T12:57:12.576Z,39.75
2022-09-24T13:00:26.132Z,41.22
2022-09-24T13:02:54.970Z,42.88
2022-09-24T13:05:27.102Z,42.85
2022-09-24T13:08:19.814Z,44.10
2022-09-24T13:10:59.499Z,43.03
2022-09-24T13:13:29.097Z,42.78
2022-09-24T13:16:05.656Z,41.72
2022-09-24T13:18:35.650Z,42.65
2022-09-24T13:21:05.901Z,41.38
2022-09-24T13:23:38.627Z,39.50
2022-09-24T13:26:08.999Z,40.03
2022-09-24T13:28:48.835Z,41.03
2022-09-24T13:31:21.817Z,40.30
2022-09-24T13:34:21.684Z,40.25
2022-09-24T13:36:59.346Z,38.60
2022-09-24T13:39:50.392Z,38.05
2022-09-24T13:42:48.491Z,38.50
2022-09-24T13:45:21.039Z,40.70
2022-09-24T13:47:55.784Z,40.08
2022-09-24T13:50:26.049Z,40.30
2022-09-24T13:52:57.898Z,42.05
2022-09-24T13:55:53.674Z,39.63
2022-09-24T14:00:59.715Z,39.50
2022-09-24T14:03:32.951Z,40.55
2022-09-24T14:06:01.251Z,40.50
2022-09-24T14:08:29.899Z,38.97
2022-09-24T14:11:10.092Z,40.05
2022-09-24T14:13:45.861Z,38.60
2022-09-24T14:16:18.957Z,39.55
2022-09-24T14:18:46.632Z,38.70
2022-09-24T14:21:27.305Z,37.95
2022-09-24T14:24:02.057Z,36.25
2022-09-24T14:26:39.232Z,39.63
2022-09-24T14:29:14.038Z,34.53
2022-09-24T14:31:46.914Z,33.63
2022-09-24T14:34:32.329Z,34.47
2022-09-24T14:39:45.285Z,35.38
2022-09-24T14:42:25.546Z,35.00
2022-09-24T14:44:52.860Z,32.70
2022-09-24T14:47:28.831Z,34.35
2022-09-24T14:49:56.277Z,33.10
2022-09-24T14:52:41.558Z,35.20
2022-09-24T14:55:11.495Z,32.58
2022-09-24T14:57:38.488Z,32.47
2022-09-24T15:00:26.755Z,33.75
2022-09-24T15:03:07.294Z,32.15
2022-09-24T15:05:34.859Z,32.85
2022-09-24T15:08:20.451Z,35.38
2022-09-24T15:10:55.294Z,35.58
2022-09-24T15:13:24.955Z,34.45
2022-09-24T15:16:01.663Z,33.50
2022-09-24T15:18:28.912Z,35.17
2022-09-24T15:20:58.023Z,36.50
2022-09-24T15:23:24.727Z,35.20
2022-09-24T15:25:51.403Z,34.33
2022-09-24T15:28:18.423Z,34.30
2022-09-24T15:30:45.462Z,33.13
2022-09-24T15:33:13.030Z,35.05
2022-09-24T15:35:42.932Z,36.42
2022-09-24T15:38:15.687Z,34.78
2022-09-24T15:40:43.814Z,35.05
2022-09-24T15:43:24.640Z,32.83
2022-09-24T15:45:51.732Z,33.13
2022-09-24T15:48:18.670Z,33.88
2022-09-24T15:50:47.031Z,32.60
2022-09-24T15:53:21.709Z,33.42
2022-09-24T15:55:52.665Z,35.38
2022-09-24T15:58:19.857Z,36.17
2022-09-24T16:00:46.600Z,36.28
2022-09-24T16:03:28.773Z,34.92
2022-09-24T16:05:56.318Z,35.95
2022-09-24T16:08:23.584Z,38.03
2022-09-24T16:10:50.425Z,36.25
2022-09-24T16:13:19.027Z,39.28
2022-09-24T16:15:45.886Z,37.13
2022-09-24T16:18:14.586Z,36.35
2022-09-24T16:20:41.684Z,38.42
2022-09-24T16:23:14.332Z,40.65
2022-09-24T16:25:58.381Z,34.60
2022-09-24T16:28:26.501Z,33.85
2022-09-24T16:30:53.730Z,34.20
2022-09-24T16:33:21.040Z,37.90
2022-09-24T16:35:48.440Z,34.70
2022-09-24T16:38:20.279Z,37.28
2022-09-24T16:40:49.217Z,33.33
2022-09-24T16:43:16.263Z,34.10
2022-09-24T16:45:42.957Z,36.80
2022-09-24T16:48:11.498Z,37.58
2022-09-24T16:50:39.642Z,36.30
2022-09-24T16:53:06.272Z,33.47
2022-09-24T16:55:32.958Z,33.65
2022-09-24T16:58:00.338Z,34.22
2022-09-24T17:00:27.047Z,35.75
2022-09-24T17:02:54.071Z,44.92
2022-09-24T17:05:20.867Z,48.97
2022-09-24T17:07:47.559Z,39.55
2022-09-24T17:10:15.372Z,40.25
2022-09-24T17:12:44.370Z,42.58
2022-09-24T17:15:13.965Z,41.35
2022-09-24T17:17:48.554Z,48.03
2022-09-24T17:20:17.614Z,48.35
2022-09-24T17:22:44.354Z,46.83
2022-09-24T17:25:11.163Z,53.92
2022-09-24T17:27:39.876Z,49.97
2022-09-24T17:30:07.541Z,57.25
2022-09-24T17:32:34.225Z,61.55
2022-09-24T17:35:00.886Z,55.05
2022-09-24T17:37:28.258Z,64.93
2022-09-24T17:39:55.072Z,56.30
2022-09-24T17:42:21.733Z,58.72
2022-09-24T17:44:48.445Z,78.18
2022-09-24T17:47:15.149Z,107.85
2022-09-24T17:49:42.501Z,102.82
2022-09-24T17:52:09.517Z,111.20
2022-09-24T17:54:36.474Z,81.22
2022-09-24T17:57:03.208Z,63.42
2022-09-24T17:59:29.897Z,56.17
2022-09-24T18:01:56.671Z,65.65
2022-09-24T18:04:25.584Z,59.08
2022-09-24T18:06:52.280Z,62.45
2022-09-24T18:09:19.834Z,79.97
2022-09-24T18:11:49.378Z,83.72
2022-09-24T18:14:18.951Z,68.97
2022-09-24T18:16:46.306Z,91.05
2022-09-24T18:19:15.568Z,81.93
2022-09-24T18:21:42.538Z,80.55
2022-09-24T18:24:10.384Z,102.63
2022-09-24T18:26:39.765Z,67.65
2022-09-24T18:29:17.913Z,70.50
2022-09-24T18:31:45.268Z,55.17
2022-09-24T18:34:14.639Z,56.58
2022-09-24T18:36:43.106Z,62.47
2022-09-24T18:39:13.151Z,61.38
2022-09-24T18:41:41.446Z,63.25
2022-09-24T18:44:08.946Z,61.13
2022-09-24T18:46:35.682Z,72.63
2022-09-24T18:49:02.622Z,72.22
2022-09-24T18:51:32.052Z,74.70
2022-09-24T18:54:04.708Z,68.70
2022-09-24T18:56:32.150Z,71.88
2022-09-24T18:58:59.857Z,70.63
2022-09-24T19:01:27.565Z,76.00
2022-09-24T19:03:56.114Z,67.25
2022-09-24T19:06:22.919Z,71.20
2022-09-24T19:08:49.772Z,67.70
2022-09-24T19:11:18.209Z,72.13
2022-09-24T19:13:50.667Z,75.35
2022-09-24T19:16:19.370Z,77.00
2022-09-24T19:18:46.099Z,78.25
2022-09-24T19:21:16.195Z,81.70
2022-09-24T19:23:45.559Z,73.40
2022-09-24T19:26:15.247Z,74.78
2022-09-24T19:28:43.005Z,90.30
2022-09-24T19:31:20.091Z,82.07
2022-09-24T19:33:47.479Z,80.90
2022-09-24T19:36:14.395Z,72.75
2022-09-24T19:38:41.708Z,82.43
2022-09-24T19:41:13.232Z,79.22
2022-09-24T19:43:43.555Z,79.70
2022-09-24T19:46:12.598Z,79.03
2022-09-24T19:48:41.479Z,89.55
2022-09-24T19:51:14.249Z,96.95
2022-09-24T19:53:46.598Z,93.03
2022-09-24T19:56:14.412Z,87.82
2022-09-24T19:58:41.205Z,79.93
2022-09-24T20:01:11.326Z,81.40
2022-09-24T20:03:40.487Z,88.20
2022-09-24T20:06:12.916Z,88.18
2022-09-24T20:08:40.026Z,75.50
2022-09-24T20:11:08.857Z,72.05
2022-09-24T20:13:35.844Z,68.55
2022-09-24T20:16:04.582Z,70.03
2022-09-24T20:18:32.877Z,77.15
2022-09-24T20:21:04.981Z,73.22
2022-09-24T20:23:31.894Z,75.47
2022-09-24T20:26:17.713Z,74.60
2022-09-24T20:28:44.407Z,81.40
2022-09-24T20:31:13.313Z,72.13
2022-09-24T20:33:41.197Z,79.68
2022-09-24T20:36:14.934Z,70.25
2022-09-24T20:38:45.197Z,75.75
2022-09-24T20:41:17.536Z,76.32
2022-09-24T20:43:45.727Z,69.72
2022-09-24T20:46:17.292Z,81.72
2022-09-24T20:48:44.068Z,100.68
2022-09-24T20:51:12.820Z,91.53
2022-09-24T20:53:40.036Z,100.35
2022-09-24T20:56:06.885Z,109.95
2022-09-24T20:58:33.861Z,106.88
2022-09-24T21:01:01.255Z,107.43
2022-09-24T21:03:43.519Z,83.78
2022-09-24T21:06:12.020Z,98.03
2022-09-24T21:08:41.015Z,82.05
2022-09-24T21:11:22.550Z,90.45
2022-09-24T21:13:51.752Z,98.90
2022-09-24T21:16:30.812Z,108.57
2022-09-24T21:18:58.695Z,141.02
2022-09-24T21:21:28.697Z,136.88
2022-09-24T21:23:57.557Z,131.55
2022-09-24T21:26:27.372Z,156.38
2022-09-24T21:29:09.847Z,158.57
2022-09-24T21:31:38.310Z,158.40
2022-09-24T21:34:06.805Z,153.32
2022-09-24T21:36:42.894Z,153.52
2022-09-24T21:39:19.909Z,142.45
2022-09-24T21:41:51.102Z,164.38
2022-09-24T21:44:18.336Z,161.52
2022-09-24T21:46:45.995Z,165.43
2022-09-24T21:49:13.127Z,160.65
2022-09-24T21:51:41.114Z,149.32
2022-09-24T21:54:11.081Z,169.40
2022-09-24T21:56:37.799Z,165.73
2022-09-24T21:59:27.739Z,160.18
2022-09-24T22:01:56.885Z,150.18
2022-09-24T22:04:23.642Z,160.00
2022-09-24T22:06:51.043Z,129.82
2022-09-24T22:09:19.080Z,124.45
2022-09-24T22:11:46.702Z,116.10
2022-09-24T22:14:14.109Z,120.45
2022-09-24T22:16:40.967Z,118.65
2022-09-24T22:19:09.190Z,116.50
2022-09-24T22:21:36.815Z,114.47
2022-09-24T22:24:05.009Z,120.68
2022-09-24T22:26:31.921Z,111.78
2022-09-24T22:28:59.250Z,107.47
2022-09-24T22:31:26.353Z,91.97
2022-09-24T22:34:12.208Z,97.55
2022-09-24T22:36:39.041Z,102.22
2022-09-24T22:39:07.021Z,93.45
2022-09-24T22:41:40.007Z,98.47
2022-09-24T22:44:07.366Z,92.43
2022-09-24T22:46:35.996Z,91.65
2022-09-24T22:49:04.867Z,98.30
2022-09-24T22:51:31.994Z,91.57
2022-09-24T22:54:00.050Z,92.63
2022-09-24T22:56:28.218Z,83.68
2022-09-24T22:58:59.886Z,82.47
2022-09-24T23:01:41.194Z,87.35
2022-09-24T23:04:08.451Z,85.65
2022-09-24T23:06:35.363Z,87.25
2022-09-24T23:09:02.971Z,89.47
2022-09-24T23:11:32.787Z,83.25
2022-09-24T23:14:05.628Z,92.93
2022-09-24T23:16:35.590Z,88.20
2022-09-24T23:19:05.491Z,86.60
2022-09-24T23:21:33.780Z,77.85
2022-09-24T23:24:06.977Z,84.15
2022-09-24T23:26:34.114Z,75.10
2022-09-24T23:29:01.063Z,81.75
2022-09-24T23:31:31.183Z,85.82
2022-09-24T23:33:59.446Z,77.45
2022-09-24T23:36:28.559Z,92.70
2022-09-24T23:38:55.219Z,81.18
2022-09-24T23:41:22.140Z,92.28
2022-09-24T23:43:49.324Z,96.72
2022-09-24T23:46:16.791Z,91.65
2022-09-24T23:48:43.871Z,98.18
2022-09-24T23:51:11.277Z,94.93
2022-09-24T23:53:38.151Z,91.38
2022-09-24T23:56:06.407Z,93.00
2022-09-24T23:58:33.738Z,96.65
